RCFN

Taitung Airport

Airport
ICAO code
RCFN
IATA Code
TTT
Summary
ICAO Region
APAC
ICAO Territory
Location

,

Serving
Fengnin
Elevation
143 ft
Coordinates
22° 45' 18" N , 121° 6' 6" E
Metar
RCFN 240630Z 18011KT 130V230 9999 FEW012 SCT017 32/29 Q1009 NOSIG RMK 18013KT/R04 A2981

Runways

Designator Length Width Surface Rops
4/22 2438 45 PEM Yes/Yes

Airport map

Aerial View

SKYbrary Partners:

Safety knowledge contributed by: